Time;durP1;ratioP1;P1;durP2;ratioP2;P2;SDS_P1;SDS_P2;PMS_P1;PMS_P2;Temp;Humidity;BMP_temperature;BMP_pressure;BME280_temperature;BME280_humidity;BME280_pressure;Samples;Min_cycle;Max_cycle;Signal;HPM_P1;HPM_P2
2021/09/22 00:04:11;;;;;;;14.55;5.65;;;12.40;99.90;;;;;;20472182;28;20060;-81
2021/09/22 00:14:12;;;;;;;13.63;6.32;;;12.50;99.90;;;;;;20472614;28;20054;-81
2021/09/22 00:24:14;;;;;;;15.73;7.07;;;12.30;99.90;;;;;;20472916;28;20053;-81
2021/09/22 00:34:16;;;;;;;16.10;7.50;;;12.20;99.90;;;;;;20510514;28;20042;-81
2021/09/22 00:44:17;;;;;;;18.35;7.57;;;12.10;99.90;;;;;;20529637;28;20048;-81
2021/09/22 00:54:18;;;;;;;19.20;7.47;;;12.20;99.90;;;;;;20502852;28;20046;-81
2021/09/22 01:04:19;;;;;;;19.52;8.70;;;12.10;99.90;;;;;;20537140;28;20050;-81
2021/09/22 01:14:22;;;;;;;19.38;8.90;;;12.20;99.90;;;;;;20536304;28;20138;-81
2021/09/22 01:24:27;;;;;;;23.83;8.60;;;12.10;99.90;;;;;;20579349;28;20042;-81
2021/09/22 01:34:29;;;;;;;21.77;8.95;;;12.20;99.90;;;;;;20552587;28;20385;-81
2021/09/22 01:44:33;;;;;;;19.60;8.20;;;12.10;99.90;;;;;;20573519;28;21872;-81
2021/09/22 01:54:34;;;;;;;18.52;7.97;;;12.00;99.90;;;;;;20574433;28;20055;-81
2021/09/22 02:04:35;;;;;;;16.08;7.65;;;12.00;99.90;;;;;;20567084;28;20050;-81
2021/09/22 02:14:36;;;;;;;15.38;7.93;;;11.90;99.90;;;;;;20533875;28;20058;-81
2021/09/22 02:24:42;;;;;;;18.70;8.40;;;11.80;99.90;;;;;;20590041;28;20055;-81
2021/09/22 02:34:44;;;;;;;21.25;9.90;;;11.70;99.90;;;;;;20583508;28;20050;-81
2021/09/22 02:44:45;;;;;;;15.93;8.02;;;11.60;99.90;;;;;;20554278;28;20145;-81
2021/09/22 02:54:46;;;;;;;16.92;7.45;;;11.50;99.90;;;;;;20586508;28;20060;-80
2021/09/22 03:04:48;;;;;;;20.67;8.15;;;11.50;99.90;;;;;;20556846;28;20062;-81
2021/09/22 03:14:49;;;;;;;17.27;7.07;;;11.50;99.90;;;;;;20564651;28;20037;-81
2021/09/22 03:24:50;;;;;;;11.88;6.35;;;11.50;99.90;;;;;;20629910;28;20096;-81
2021/09/22 03:34:51;;;;;;;17.35;7.00;;;11.50;99.90;;;;;;20546025;28;20043;-81
2021/09/22 03:44:52;;;;;;;19.85;8.07;;;11.60;99.90;;;;;;20535833;28;20059;-81
2021/09/22 03:54:54;;;;;;;16.17;7.55;;;11.60;99.90;;;;;;20576884;28;20043;-82
2021/09/22 04:04:55;;;;;;;15.52;7.75;;;11.60;99.90;;;;;;20555323;28;20045;-81
2021/09/22 04:14:56;;;;;;;20.27;9.27;;;11.60;99.90;;;;;;20566683;28;20048;-81
2021/09/22 04:24:57;;;;;;;20.67;8.27;;;11.70;99.90;;;;;;20560102;28;21205;-81
2021/09/22 04:34:58;;;;;;;20.10;8.48;;;11.80;99.90;;;;;;20592776;28;20053;-81
2021/09/22 04:45:00;;;;;;;19.65;7.93;;;11.80;99.90;;;;;;20543027;28;20530;-82
2021/09/22 04:55:01;;;;;;;17.25;8.32;;;11.80;99.90;;;;;;20570289;28;20117;-81
2021/09/22 05:05:03;;;;;;;22.70;8.88;;;11.90;99.90;;;;;;20570095;28;20047;-82
2021/09/22 05:15:05;;;;;;;24.65;8.10;;;11.90;99.90;;;;;;20548100;28;20046;-81
2021/09/22 05:25:07;;;;;;;24.77;7.43;;;11.90;99.90;;;;;;20568238;28;20049;-81
2021/09/22 05:35:09;;;;;;;21.77;8.43;;;11.80;99.90;;;;;;20582741;28;20069;-81
2021/09/22 05:45:14;;;;;;;21.48;7.68;;;11.70;99.90;;;;;;20593918;28;20057;-81
2021/09/22 05:55:15;;;;;;;22.45;7.50;;;11.70;99.90;;;;;;20549048;28;20496;-81
2021/09/22 06:05:16;;;;;;;18.83;7.30;;;11.80;99.90;;;;;;20574472;28;20042;-81
2021/09/22 06:15:17;;;;;;;23.23;7.85;;;11.80;99.90;;;;;;20611384;28;20400;-82
2021/09/22 06:25:19;;;;;;;33.72;13.73;;;11.90;99.90;;;;;;20607970;28;20044;-81
2021/09/22 06:35:20;;;;;;;19.55;8.45;;;12.00;99.90;;;;;;20588589;28;20042;-81
2021/09/22 06:45:22;;;;;;;24.83;8.80;;;12.10;99.90;;;;;;20593485;28;20059;-81
2021/09/22 06:55:24;;;;;;;17.13;7.30;;;12.10;99.90;;;;;;20572150;28;20043;-82
2021/09/22 07:05:25;;;;;;;20.88;8.88;;;12.30;99.90;;;;;;20592399;28;20054;-82
2021/09/22 07:15:26;;;;;;;23.70;7.63;;;12.40;99.90;;;;;;20563003;28;20030;-82
2021/09/22 07:25:28;;;;;;;28.23;9.77;;;12.60;99.90;;;;;;20589995;28;20692;-82
2021/09/22 07:35:29;;;;;;;19.98;8.45;;;12.80;99.90;;;;;;20594927;28;20051;-81
2021/09/22 07:45:31;;;;;;;17.88;8.80;;;13.10;99.90;;;;;;20487109;28;20063;-82
2021/09/22 07:55:33;;;;;;;22.70;8.85;;;13.30;99.90;;;;;;20499585;28;20048;-82
2021/09/22 08:05:38;;;;;;;24.05;8.60;;;13.60;99.90;;;;;;20494119;28;20058;-82
2021/09/22 08:15:40;;;;;;;21.05;7.93;;;13.70;99.90;;;;;;20467264;28;20043;-83
2021/09/22 08:25:42;;;;;;;18.73;6.93;;;14.00;99.90;;;;;;20469263;28;20031;-82
2021/09/22 08:35:43;;;;;;;17.92;7.45;;;14.30;99.90;;;;;;20524226;28;20164;-79
2021/09/22 08:45:45;;;;;;;16.00;7.80;;;14.80;99.90;;;;;;20544699;28;20399;-80
2021/09/22 08:55:47;;;;;;;16.45;6.50;;;15.10;99.90;;;;;;20532149;28;20038;-80
2021/09/22 09:05:49;;;;;;;16.83;6.30;;;15.50;99.90;;;;;;20499361;28;20130;-80
2021/09/22 09:15:50;;;;;;;15.88;6.30;;;15.80;99.90;;;;;;20546015;28;20472;-80
2021/09/22 09:25:56;;;;;;;17.02;7.15;;;16.20;99.90;;;;;;20556011;28;20062;-81
2021/09/22 09:36:00;;;;;;;13.60;5.72;;;16.60;99.90;;;;;;20549955;28;20520;-80
2021/09/22 09:46:01;;;;;;;18.60;6.85;;;16.80;99.90;;;;;;20505832;28;20089;-80
2021/09/22 09:56:06;;;;;;;16.20;5.57;;;17.20;99.90;;;;;;20509736;28;20062;-81
2021/09/22 10:06:08;;;;;;;9.70;4.90;;;17.60;99.90;;;;;;20539710;28;20048;-79
2021/09/22 10:16:09;;;;;;;11.40;4.05;;;17.90;99.90;;;;;;20540546;28;20049;-80
2021/09/22 10:26:11;;;;;;;10.75;4.45;;;18.10;99.90;;;;;;20469531;28;20070;-80
2021/09/22 10:36:15;;;;;;;10.75;4.43;;;18.30;99.90;;;;;;20512278;28;20434;-80
2021/09/22 10:46:18;;;;;;;11.30;4.25;;;18.70;99.90;;;;;;20502678;28;20063;-80
2021/09/22 10:56:26;;;;;;;8.98;4.13;;;19.00;99.90;;;;;;20502670;28;20082;-84
2021/09/22 11:06:42;;;;;;;;;;;19.50;99.90;;;;;;20499656;28;20052;-80
2021/09/22 11:16:44;;;;;;;6.28;2.92;;;20.20;99.90;;;;;;20492723;28;19913;-80
2021/09/22 11:26:54;;;;;;;6.45;2.60;;;20.80;99.90;;;;;;20511871;28;20063;-80
2021/09/22 11:37:12;;;;;;;7.60;2.78;;;21.20;99.90;;;;;;20497061;28;20043;-80
2021/09/22 11:47:17;;;;;;;9.23;3.33;;;21.70;99.90;;;;;;20575271;28;20072;-80
2021/09/22 11:57:19;;;;;;;7.45;3.85;;;21.70;99.90;;;;;;20561426;28;20052;-79
2021/09/22 12:07:31;;;;;;;7.43;3.67;;;22.40;99.90;;;;;;20586862;28;20043;-79
2021/09/22 12:17:34;;;;;;;6.88;3.83;;;22.40;99.90;;;;;;20509686;28;20050;-79
2021/09/22 12:27:39;;;;;;;7.28;3.55;;;22.10;99.90;;;;;;20456698;28;20047;-79
2021/09/22 12:37:54;;;;;;;6.85;3.47;;;22.40;99.90;;;;;;20511747;28;20114;-79
2021/09/22 12:48:02;;;;;;;7.25;3.65;;;22.90;99.90;;;;;;20565342;28;20556;-80
2021/09/22 12:58:06;;;;;;;7.88;2.90;;;22.00;99.90;;;;;;20527717;28;20097;-80
2021/09/22 13:08:09;;;;;;;5.55;3.13;;;22.50;99.90;;;;;;20560326;28;20534;-79
2021/09/22 13:18:10;;;;;;;6.72;2.38;;;22.70;99.90;;;;;;20560241;28;20057;-79
2021/09/22 13:28:12;;;;;;;6.30;3.47;;;23.50;99.90;;;;;;20552908;28;20069;-79
2021/09/22 13:38:15;;;;;;;6.50;3.30;;;23.40;99.90;;;;;;20554714;28;20056;-79
2021/09/22 13:48:16;;;;;;;6.82;3.45;;;23.40;99.90;;;;;;20606359;28;20134;-80
2021/09/22 13:58:17;;;;;;;5.55;2.72;;;23.70;99.90;;;;;;20609586;28;20125;-78
2021/09/22 14:08:18;;;;;;;5.97;2.97;;;24.10;99.90;;;;;;20588111;28;20450;-79
2021/09/22 14:18:20;;;;;;;12.23;3.85;;;24.00;99.90;;;;;;20605943;28;20039;-80
2021/09/22 14:28:23;;;;;;;8.32;3.10;;;23.30;99.90;;;;;;20623794;28;20064;-80
2021/09/22 14:38:24;;;;;;;4.57;2.22;;;22.60;99.90;;;;;;20599080;28;20229;-79
2021/09/22 14:48:25;;;;;;;6.00;2.72;;;22.60;99.90;;;;;;20562999;28;20077;-80
2021/09/22 14:58:26;;;;;;;4.75;2.25;;;22.20;99.90;;;;;;20613170;28;20070;-79
2021/09/22 15:08:27;;;;;;;4.30;2.08;;;21.90;99.90;;;;;;20578990;28;20086;-80
2021/09/22 15:18:28;;;;;;;5.68;2.47;;;21.60;99.90;;;;;;20624831;28;20054;-80
2021/09/22 15:28:30;;;;;;;5.97;2.65;;;21.40;99.90;;;;;;20567728;28;20054;-80
2021/09/22 15:38:31;;;;;;;5.07;1.90;;;21.10;99.90;;;;;;20608130;28;20056;-80
2021/09/22 15:48:32;;;;;;;11.20;2.35;;;21.00;99.90;;;;;;20566957;28;20074;-80
2021/09/22 15:58:34;;;;;;;8.95;1.70;;;20.80;99.90;;;;;;20502673;28;20054;-79
2021/09/22 16:08:35;;;;;;;5.50;1.88;;;20.40;99.90;;;;;;20521971;28;20054;-80
2021/09/22 16:18:36;;;;;;;4.60;2.20;;;20.20;99.90;;;;;;20496697;28;20048;-80
2021/09/22 16:28:38;;;;;;;5.68;3.10;;;19.90;99.90;;;;;;20526008;28;20055;-80
2021/09/22 16:38:39;;;;;;;7.55;2.83;;;19.70;99.90;;;;;;20493888;28;20037;-80
2021/09/22 16:48:40;;;;;;;4.75;2.40;;;19.50;99.90;;;;;;20480936;28;20039;-80
2021/09/22 16:58:41;;;;;;;5.38;2.22;;;19.30;99.90;;;;;;20516431;28;20050;-80
2021/09/22 17:08:42;;;;;;;5.65;2.30;;;19.10;99.90;;;;;;20511981;28;20062;-80
2021/09/22 17:18:43;;;;;;;4.88;1.70;;;18.80;99.90;;;;;;20521639;28;20047;-79
2021/09/22 17:28:45;;;;;;;5.03;2.17;;;18.70;99.90;;;;;;20606747;28;20063;-79
2021/09/22 17:38:47;;;;;;;6.03;2.70;;;18.40;99.90;;;;;;20552731;28;20069;-79
2021/09/22 17:48:48;;;;;;;4.97;2.15;;;18.10;99.90;;;;;;20553158;28;20050;-79
2021/09/22 17:58:49;;;;;;;5.13;2.20;;;17.90;99.90;;;;;;20534091;28;20351;-80
2021/09/22 18:08:51;;;;;;;5.93;2.20;;;17.50;99.90;;;;;;20571316;28;20058;-79
2021/09/22 18:18:53;;;;;;;16.05;5.93;;;17.20;99.90;;;;;;20535185;28;20492;-78
2021/09/22 18:28:54;;;;;;;6.07;2.65;;;16.90;99.90;;;;;;20512674;28;20427;-79
2021/09/22 18:38:56;;;;;;;7.82;2.58;;;16.70;99.90;;;;;;20539915;28;20054;-79
2021/09/22 18:48:57;;;;;;;4.70;2.13;;;16.40;99.90;;;;;;20554746;28;20052;-79
2021/09/22 18:58:58;;;;;;;7.95;3.20;;;16.30;99.90;;;;;;20510498;28;20043;-79
2021/09/22 19:09:00;;;;;;;6.50;2.72;;;16.00;99.90;;;;;;20536905;28;20045;-79
2021/09/22 19:19:02;;;;;;;8.65;3.80;;;15.80;99.90;;;;;;20506354;28;20047;-79
2021/09/22 19:29:06;;;;;;;8.05;3.63;;;15.60;99.90;;;;;;20556292;28;20070;-79
2021/09/22 19:39:07;;;;;;;8.55;3.60;;;15.40;99.90;;;;;;20553090;28;20060;-79
2021/09/22 19:49:08;;;;;;;10.10;3.40;;;15.20;99.90;;;;;;20525824;28;20048;-78
2021/09/22 19:59:12;;;;;;;8.57;3.50;;;15.00;99.90;;;;;;20537528;28;20404;-79
2021/09/22 20:09:13;;;;;;;8.55;4.47;;;14.80;99.90;;;;;;20564540;28;20046;-79
2021/09/22 20:19:14;;;;;;;12.15;5.00;;;14.60;99.90;;;;;;20555631;28;20044;-82
2021/09/22 20:29:17;;;;;;;11.27;5.43;;;14.50;99.90;;;;;;20505535;28;20670;-82
2021/09/22 20:39:18;;;;;;;11.20;4.80;;;14.60;99.90;;;;;;20525834;28;20061;-82
2021/09/22 20:49:19;;;;;;;14.02;4.75;;;14.40;99.90;;;;;;20527088;28;20446;-82
2021/09/22 20:59:26;;;;;;;10.32;3.92;;;14.40;99.90;;;;;;20541028;28;20141;-82
2021/09/22 21:09:27;;;;;;;13.43;5.20;;;14.50;99.90;;;;;;20518612;28;20055;-82
2021/09/22 21:19:28;;;;;;;11.43;4.60;;;14.50;99.90;;;;;;20515014;28;20047;-82
2021/09/22 21:29:29;;;;;;;11.25;5.13;;;14.50;99.90;;;;;;20511212;28;20055;-81
2021/09/22 21:39:30;;;;;;;16.55;6.53;;;14.50;99.90;;;;;;20541450;28;20061;-82
2021/09/22 21:49:31;;;;;;;11.88;5.30;;;14.40;99.90;;;;;;20538869;28;20049;-82
2021/09/22 21:59:33;;;;;;;17.20;6.85;;;14.20;99.90;;;;;;20545919;28;20375;-82
2021/09/22 22:09:34;;;;;;;12.05;6.15;;;14.20;99.90;;;;;;20536999;28;20046;-82
2021/09/22 22:19:36;;;;;;;14.85;6.40;;;14.10;99.90;;;;;;20512228;28;20419;-82
2021/09/22 22:29:37;;;;;;;15.55;6.68;;;14.10;99.90;;;;;;20500145;28;20162;-82
2021/09/22 22:39:39;;;;;;;15.45;6.18;;;14.00;99.90;;;;;;20517377;28;20062;-82
2021/09/22 22:49:42;;;;;;;15.23;6.68;;;13.90;99.90;;;;;;20497615;28;20058;-82
2021/09/22 22:59:43;;;;;;;13.65;6.43;;;14.10;99.90;;;;;;20484803;28;20042;-81
2021/09/22 23:09:44;;;;;;;14.43;6.20;;;14.00;99.90;;;;;;20471842;28;20057;-82
2021/09/22 23:20:10;;;;;;;11.02;5.90;;;13.80;99.90;;;;;;20557544;28;20378;-82
2021/09/22 23:30:10;;;;;;;14.32;6.50;;;13.70;99.90;;;;;;20499828;28;20066;-82
2021/09/22 23:40:12;;;;;;;12.73;5.68;;;13.60;99.90;;;;;;20526270;28;20212;-81
2021/09/22 23:50:13;;;;;;;11.60;5.10;;;13.60;99.90;;;;;;20499180;28;20394;-82
